Time;durP1;ratioP1;P1;durP2;ratioP2;P2;SDS_P1;SDS_P2;PMS_P1;PMS_P2;Temp;Humidity;BMP_temperature;BMP_pressure;BME280_temperature;BME280_humidity;BME280_pressure;Samples;Min_cycle;Max_cycle;Signal;HPM_P1;HPM_P2
2021/09/11 00:01:50;;;;;;;4.53;3.50;;;25.90;51.80;;;;;;5028376;28;20033;-47
2021/09/11 00:04:15;;;;;;;4.88;3.80;;;25.90;51.80;;;;;;5024350;28;20044;-56
2021/09/11 00:06:41;;;;;;;3.92;3.30;;;25.90;51.80;;;;;;5030796;28;20063;-50
2021/09/11 00:09:07;;;;;;;4.05;3.45;;;25.90;51.80;;;;;;5037772;28;20508;-53
2021/09/11 00:11:32;;;;;;;4.13;3.50;;;25.90;51.90;;;;;;5036439;28;20075;-58
2021/09/11 00:13:58;;;;;;;4.38;3.25;;;25.90;51.80;;;;;;5027229;28;20037;-58
2021/09/11 00:16:24;;;;;;;4.18;3.38;;;25.90;51.80;;;;;;5038160;28;20095;-54
2021/09/11 00:18:49;;;;;;;3.88;3.17;;;25.90;51.80;;;;;;5035510;28;20822;-58
2021/09/11 00:21:15;;;;;;;4.32;3.15;;;25.90;51.80;;;;;;5038657;28;20112;-51
2021/09/11 00:23:41;;;;;;;4.70;3.40;;;25.90;51.80;;;;;;5036216;28;20031;-55
2021/09/11 00:26:07;;;;;;;4.25;3.00;;;25.90;51.90;;;;;;5045102;28;20052;-59
2021/09/11 00:28:33;;;;;;;4.00;3.33;;;25.80;51.80;;;;;;5035890;28;20040;-54
2021/09/11 00:30:59;;;;;;;3.95;3.30;;;25.80;51.80;;;;;;5037599;28;20060;-53
2021/09/11 00:33:26;;;;;;;3.85;3.20;;;25.80;51.80;;;;;;5032055;28;20568;-54
2021/09/11 00:35:51;;;;;;;3.65;3.10;;;25.80;51.80;;;;;;5040510;28;20043;-58
2021/09/11 00:38:17;;;;;;;4.07;3.20;;;25.80;51.80;;;;;;5043276;28;20033;-54
2021/09/11 00:40:43;;;;;;;3.58;3.10;;;25.80;51.80;;;;;;5041622;28;20091;-53
2021/09/11 00:43:08;;;;;;;3.63;3.25;;;25.80;51.80;;;;;;5037270;28;20041;-56
2021/09/11 00:45:34;;;;;;;4.00;3.60;;;25.80;51.80;;;;;;5041482;28;20091;-59
2021/09/11 00:48:00;;;;;;;3.83;3.30;;;25.80;51.80;;;;;;5041555;28;20114;-49
2021/09/11 00:50:25;;;;;;;3.95;3.13;;;25.80;51.80;;;;;;5031421;28;20048;-58
2021/09/11 00:52:52;;;;;;;3.30;2.80;;;25.80;51.80;;;;;;5030355;28;20170;-59
2021/09/11 00:55:18;;;;;;;3.80;3.20;;;25.80;51.80;;;;;;5027886;28;20600;-52
2021/09/11 00:57:46;;;;;;;3.70;3.30;;;25.80;51.80;;;;;;5030832;28;20022;-55
2021/09/11 01:00:14;;;;;;;3.63;2.90;;;25.80;51.80;;;;;;5053551;28;20388;-55
2021/09/11 01:02:40;;;;;;;3.83;3.08;;;25.80;51.80;;;;;;5039880;28;20116;-55
2021/09/11 01:05:07;;;;;;;4.88;3.60;;;25.80;51.80;;;;;;5045483;28;20465;-59
2021/09/11 01:07:38;;;;;;;3.80;3.10;;;25.80;51.80;;;;;;5032821;28;20114;-53
2021/09/11 01:10:05;;;;;;;3.85;3.10;;;25.80;51.80;;;;;;5039676;28;20048;-56
2021/09/11 01:12:31;;;;;;;3.67;3.17;;;25.80;51.80;;;;;;5044224;28;20765;-58
2021/09/11 01:15:01;;;;;;;3.63;3.30;;;25.80;51.80;;;;;;5039730;28;20040;-51
2021/09/11 01:17:27;;;;;;;3.30;2.88;;;25.80;51.80;;;;;;5041469;28;20013;-51
2021/09/11 01:19:52;;;;;;;4.40;3.42;;;25.80;51.80;;;;;;5037311;28;20029;-59
2021/09/11 01:22:18;;;;;;;3.70;3.13;;;25.80;51.80;;;;;;5041070;28;20028;-58
2021/09/11 01:25:10;;;;;;;3.45;3.10;;;25.80;51.80;;;;;;5041459;28;20040;-53
2021/09/11 01:27:37;;;;;;;3.60;3.10;;;25.80;51.80;;;;;;5030885;28;20482;-55
2021/09/11 01:30:11;;;;;;;3.50;3.03;;;25.80;51.80;;;;;;5040980;28;20060;-54
2021/09/11 01:32:36;;;;;;;4.30;3.17;;;25.80;51.80;;;;;;5035544;28;20515;-56
2021/09/11 01:35:03;;;;;;;3.65;3.22;;;25.80;51.80;;;;;;5033336;28;20029;-58
2021/09/11 01:37:29;;;;;;;3.55;3.20;;;25.80;51.80;;;;;;5028907;28;20029;-58
2021/09/11 01:39:54;;;;;;;3.85;3.30;;;25.80;51.80;;;;;;5043223;28;20041;-60
2021/09/11 01:42:22;;;;;;;3.45;3.03;;;25.70;51.70;;;;;;5028860;28;20128;-56
2021/09/11 01:44:56;;;;;;;3.45;3.15;;;25.80;51.80;;;;;;5043296;28;20107;-49
2021/09/11 01:47:22;;;;;;;3.80;3.30;;;25.70;51.70;;;;;;5038585;28;20040;-58
2021/09/11 01:49:48;;;;;;;3.58;3.00;;;25.70;52.00;;;;;;5037473;28;20070;-58
2021/09/11 01:52:14;;;;;;;3.35;3.05;;;25.80;51.80;;;;;;5047294;28;20033;-58
2021/09/11 01:54:40;;;;;;;3.50;3.10;;;25.70;51.70;;;;;;5036510;28;20051;-59
2021/09/11 01:57:07;;;;;;;3.97;3.30;;;25.70;52.20;;;;;;5030117;28;20030;-56
2021/09/11 01:59:34;;;;;;;3.90;3.30;;;25.70;51.70;;;;;;5029828;28;20032;-49
2021/09/11 02:02:00;;;;;;;3.78;3.20;;;25.70;51.70;;;;;;5033642;28;20047;-59
2021/09/11 02:04:26;;;;;;;4.20;3.30;;;25.80;51.80;;;;;;5029738;28;20052;-55
2021/09/11 02:06:52;;;;;;;3.75;3.20;;;25.70;51.70;;;;;;5024419;28;20022;-59
2021/09/11 02:09:18;;;;;;;3.70;3.13;;;25.70;51.70;;;;;;5028001;28;20030;-58
2021/09/11 02:11:44;;;;;;;3.55;2.90;;;25.70;51.80;;;;;;5044601;28;20085;-56
2021/09/11 02:14:10;;;;;;;3.42;3.10;;;25.70;51.70;;;;;;5035103;28;20136;-54
2021/09/11 02:16:35;;;;;;;3.38;3.08;;;25.70;51.70;;;;;;5029582;28;20218;-51
2021/09/11 02:19:01;;;;;;;3.50;2.70;;;25.70;51.70;;;;;;5035905;28;20116;-57
2021/09/11 02:21:27;;;;;;;3.65;3.20;;;25.70;51.70;;;;;;5044084;28;20040;-58
2021/09/11 02:23:52;;;;;;;3.25;2.90;;;25.70;51.80;;;;;;5041693;28;20032;-58
2021/09/11 02:26:18;;;;;;;3.60;3.25;;;25.70;51.80;;;;;;5039247;28;20135;-53
2021/09/11 02:28:43;;;;;;;3.92;3.10;;;25.70;51.80;;;;;;5024642;28;20776;-53
2021/09/11 02:31:12;;;;;;;3.90;3.10;;;25.70;51.80;;;;;;5035262;28;20050;-59
2021/09/11 02:33:39;;;;;;;3.45;3.10;;;25.70;51.80;;;;;;5035056;28;20029;-55
2021/09/11 02:36:05;;;;;;;3.13;2.83;;;25.70;51.80;;;;;;5027045;28;20435;-58
2021/09/11 02:38:35;;;;;;;3.58;3.20;;;25.70;51.80;;;;;;5028988;28;20033;-54
2021/09/11 02:41:01;;;;;;;3.28;2.97;;;25.70;51.80;;;;;;5028293;28;20116;-58
2021/09/11 02:43:26;;;;;;;3.28;2.95;;;25.70;51.80;;;;;;5035746;28;20120;-59
2021/09/11 02:45:52;;;;;;;3.75;3.35;;;25.70;51.80;;;;;;5037281;28;20119;-56
2021/09/11 02:48:18;;;;;;;3.35;2.95;;;25.70;51.80;;;;;;5029340;28;20116;-57
2021/09/11 02:50:44;;;;;;;3.55;3.00;;;25.70;51.70;;;;;;5034047;28;20033;-58
2021/09/11 02:53:10;;;;;;;3.55;2.85;;;25.70;51.80;;;;;;5046172;28;20025;-53
2021/09/11 02:55:36;;;;;;;3.38;2.80;;;25.70;51.80;;;;;;5025318;28;20083;-54
2021/09/11 02:58:01;;;;;;;3.28;2.97;;;25.70;51.70;;;;;;5032493;28;20025;-54
2021/09/11 03:00:27;;;;;;;3.67;2.70;;;25.70;51.70;;;;;;5032320;28;20046;-51
2021/09/11 03:02:52;;;;;;;3.13;2.80;;;25.70;51.80;;;;;;5040886;28;20075;-60
2021/09/11 03:05:18;;;;;;;3.50;2.97;;;25.70;51.70;;;;;;5033832;28;20055;-59
2021/09/11 03:07:44;;;;;;;3.85;3.05;;;25.70;51.80;;;;;;5026931;28;20088;-52
2021/09/11 03:10:10;;;;;;;3.42;2.97;;;25.70;51.80;;;;;;5035102;28;20471;-59
2021/09/11 03:12:35;;;;;;;3.40;2.80;;;25.70;51.80;;;;;;5036245;28;20071;-53
2021/09/11 03:15:01;;;;;;;3.70;3.03;;;25.70;51.80;;;;;;5037282;28;20083;-51
2021/09/11 03:17:27;;;;;;;3.03;2.70;;;25.70;51.80;;;;;;5040842;28;20132;-57
2021/09/11 03:19:52;;;;;;;3.42;2.90;;;25.70;51.80;;;;;;5028654;28;20423;-59
2021/09/11 03:22:18;;;;;;;3.95;3.55;;;25.70;51.70;;;;;;5042279;28;20028;-53
2021/09/11 03:24:43;;;;;;;3.40;2.88;;;25.70;51.80;;;;;;5035933;28;20024;-59
2021/09/11 03:27:09;;;;;;;3.60;2.80;;;25.70;51.70;;;;;;5035841;28;20938;-57
2021/09/11 03:29:34;;;;;;;3.45;3.00;;;25.70;51.80;;;;;;5035415;28;20036;-59
2021/09/11 03:32:00;;;;;;;3.60;3.20;;;25.70;51.80;;;;;;5042975;28;20041;-54
2021/09/11 03:34:25;;;;;;;2.78;2.40;;;25.70;51.80;;;;;;5039372;28;20070;-58
2021/09/11 03:36:51;;;;;;;3.67;2.97;;;25.70;51.80;;;;;;5026184;28;20044;-52
2021/09/11 03:39:17;;;;;;;3.72;3.08;;;25.70;51.80;;;;;;5032316;28;20433;-53
2021/09/11 03:41:42;;;;;;;3.40;2.92;;;25.70;51.80;;;;;;5024598;28;20043;-51
2021/09/11 03:44:08;;;;;;;3.88;3.05;;;25.70;51.80;;;;;;5037113;28;20049;-50
2021/09/11 03:46:34;;;;;;;3.35;2.80;;;25.60;51.70;;;;;;5039391;28;20023;-53
2021/09/11 03:49:00;;;;;;;3.38;3.08;;;25.70;51.80;;;;;;5047283;28;20125;-54
2021/09/11 03:51:25;;;;;;;3.20;2.90;;;25.60;51.70;;;;;;5048379;28;20510;-55
2021/09/11 03:53:51;;;;;;;3.35;2.72;;;25.60;51.70;;;;;;5048077;28;20039;-56
2021/09/11 03:56:16;;;;;;;3.53;2.72;;;25.60;51.70;;;;;;5046997;28;20389;-58
2021/09/11 03:58:42;;;;;;;3.38;2.88;;;25.70;51.80;;;;;;5035185;28;20033;-58
2021/09/11 04:01:08;;;;;;;3.13;2.80;;;25.60;51.70;;;;;;5038791;28;20034;-59
2021/09/11 04:03:35;;;;;;;3.40;2.60;;;25.60;51.70;;;;;;5045342;28;20102;-56
2021/09/11 04:06:00;;;;;;;3.72;3.00;;;25.60;51.70;;;;;;5034387;28;20049;-59
2021/09/11 04:08:30;;;;;;;3.20;2.70;;;25.60;51.70;;;;;;5027385;28;20026;-59
2021/09/11 04:10:56;;;;;;;3.10;2.80;;;25.60;51.80;;;;;;5040749;28;20031;-58
2021/09/11 04:13:21;;;;;;;3.95;3.28;;;25.60;51.70;;;;;;5041758;28;20076;-53
2021/09/11 04:15:47;;;;;;;3.63;2.95;;;25.60;51.70;;;;;;5035591;28;20028;-54
2021/09/11 04:18:12;;;;;;;4.05;2.75;;;25.60;51.70;;;;;;5040300;28;20067;-58
2021/09/11 04:20:38;;;;;;;3.35;3.05;;;25.60;51.70;;;;;;5033261;28;20043;-59
2021/09/11 04:23:04;;;;;;;3.33;2.70;;;25.60;51.70;;;;;;5033867;28;20033;-58
2021/09/11 04:25:29;;;;;;;3.25;2.85;;;25.60;51.70;;;;;;5046732;28;20036;-58
2021/09/11 04:27:55;;;;;;;2.97;2.58;;;25.60;51.80;;;;;;5047471;28;20044;-58
2021/09/11 04:30:21;;;;;;;3.30;2.88;;;25.60;51.70;;;;;;5042948;28;20029;-50
2021/09/11 04:32:46;;;;;;;3.10;2.80;;;25.60;51.70;;;;;;5030832;28;20087;-58
2021/09/11 04:35:12;;;;;;;3.15;2.72;;;25.60;51.70;;;;;;5045358;28;20029;-57
2021/09/11 04:37:38;;;;;;;3.00;2.50;;;25.60;51.70;;;;;;5038709;28;20033;-57
2021/09/11 04:40:04;;;;;;;2.80;2.45;;;25.60;51.70;;;;;;5029035;28;20131;-58
2021/09/11 04:42:29;;;;;;;3.47;2.80;;;25.60;51.70;;;;;;5026699;28;20070;-57
2021/09/11 04:44:55;;;;;;;3.45;2.88;;;25.60;51.80;;;;;;5035876;28;20129;-57
2021/09/11 04:47:21;;;;;;;3.33;2.90;;;25.60;51.80;;;;;;5044620;28;20040;-59
2021/09/11 04:49:46;;;;;;;3.38;3.03;;;25.60;51.80;;;;;;5042585;28;20033;-55
2021/09/11 04:52:12;;;;;;;3.35;2.80;;;25.60;51.80;;;;;;5044064;28;20086;-49
2021/09/11 04:54:37;;;;;;;3.25;2.78;;;25.60;51.70;;;;;;5047414;28;20029;-53
2021/09/11 04:57:03;;;;;;;3.05;2.75;;;25.60;51.80;;;;;;5041001;28;20538;-59
2021/09/11 04:59:29;;;;;;;3.20;2.70;;;25.60;51.80;;;;;;5035419;28;20144;-55
2021/09/11 05:01:56;;;;;;;3.33;2.63;;;25.60;51.80;;;;;;5043213;28;20037;-56
2021/09/11 05:04:22;;;;;;;3.08;2.65;;;25.60;51.80;;;;;;5046838;28;20037;-57
2021/09/11 05:06:48;;;;;;;3.40;2.70;;;25.60;51.80;;;;;;5039039;28;20374;-58
2021/09/11 05:09:13;;;;;;;3.45;2.78;;;25.60;51.80;;;;;;5032692;28;20191;-52
2021/09/11 05:11:39;;;;;;;3.05;2.58;;;25.60;51.80;;;;;;5040604;28;20742;-55
2021/09/11 05:14:04;;;;;;;3.00;2.60;;;25.60;51.80;;;;;;5042249;28;20084;-58
2021/09/11 05:16:30;;;;;;;3.38;2.65;;;25.50;51.70;;;;;;5036584;28;20460;-56
2021/09/11 05:18:56;;;;;;;3.65;2.75;;;25.50;51.70;;;;;;5038556;28;20043;-54
2021/09/11 05:21:21;;;;;;;3.20;2.80;;;25.50;51.70;;;;;;5043248;28;20040;-56
2021/09/11 05:23:47;;;;;;;3.42;2.90;;;25.50;51.70;;;;;;5041986;28;20136;-58
2021/09/11 05:26:12;;;;;;;3.22;2.78;;;25.50;51.70;;;;;;5047747;28;20025;-53
2021/09/11 05:28:38;;;;;;;2.90;2.60;;;25.50;51.70;;;;;;5045260;28;20025;-53
2021/09/11 05:31:04;;;;;;;3.00;2.70;;;25.50;51.70;;;;;;5043217;28;20125;-58
2021/09/11 05:33:29;;;;;;;2.97;2.58;;;25.50;51.70;;;;;;5026555;28;20029;-58
2021/09/11 05:35:55;;;;;;;3.08;2.70;;;25.50;51.80;;;;;;5030277;28;20041;-56
2021/09/11 05:38:21;;;;;;;3.10;2.80;;;25.50;51.80;;;;;;5039596;28;20135;-59
2021/09/11 05:40:46;;;;;;;3.30;2.92;;;25.50;51.80;;;;;;5044106;28;20025;-58
2021/09/11 05:43:12;;;;;;;3.00;2.70;;;25.50;51.80;;;;;;5043975;28;20029;-59
2021/09/11 05:45:38;;;;;;;3.13;2.80;;;25.50;51.80;;;;;;5040218;28;20057;-58
2021/09/11 05:48:04;;;;;;;3.00;2.47;;;25.50;52.30;;;;;;5028371;28;20025;-59
2021/09/11 05:50:29;;;;;;;3.55;2.70;;;25.50;51.80;;;;;;5038658;28;20129;-54
2021/09/11 05:52:55;;;;;;;2.90;2.45;;;25.50;51.80;;;;;;5037066;28;20116;-59
2021/09/11 05:55:21;;;;;;;3.13;2.65;;;25.50;51.80;;;;;;5043075;28;20102;-58
2021/09/11 05:57:46;;;;;;;3.30;2.90;;;25.50;51.80;;;;;;5033615;28;20028;-57
2021/09/11 06:00:12;;;;;;;3.00;2.63;;;25.50;51.80;;;;;;5037623;28;20021;-59
2021/09/11 06:02:38;;;;;;;3.25;2.70;;;25.50;51.80;;;;;;5041451;28;20041;-59
2021/09/11 06:05:04;;;;;;;3.90;3.10;;;25.50;51.80;;;;;;5044328;28;20029;-55
2021/09/11 06:07:30;;;;;;;3.33;2.60;;;25.50;51.80;;;;;;5039893;28;20034;-59
2021/09/11 06:09:56;;;;;;;3.17;2.50;;;25.50;51.80;;;;;;5035563;28;20543;-58
2021/09/11 06:12:22;;;;;;;3.05;2.60;;;25.50;51.80;;;;;;5044365;28;20046;-59
2021/09/11 06:14:49;;;;;;;2.70;2.40;;;25.50;51.80;;;;;;5043799;28;20104;-56
2021/09/11 06:17:14;;;;;;;3.08;2.65;;;25.50;51.80;;;;;;5042976;28;20054;-52
2021/09/11 06:19:40;;;;;;;3.40;2.80;;;25.50;51.80;;;;;;5035119;28;20517;-58
2021/09/11 06:22:09;;;;;;;2.88;2.53;;;25.50;51.80;;;;;;5031144;28;20052;-58
2021/09/11 06:24:34;;;;;;;3.10;2.65;;;25.50;51.80;;;;;;5042245;28;20029;-58
2021/09/11 06:27:00;;;;;;;3.20;2.80;;;25.50;51.80;;;;;;5032767;28;20888;-58
2021/09/11 06:29:26;;;;;;;3.13;2.60;;;25.50;51.90;;;;;;5030624;28;20092;-53
2021/09/11 06:31:51;;;;;;;2.83;2.45;;;25.40;51.70;;;;;;5031687;28;20523;-58
2021/09/11 06:34:17;;;;;;;3.25;2.60;;;25.50;51.80;;;;;;5037303;28;20106;-54
2021/09/11 06:36:43;;;;;;;2.78;2.35;;;25.50;51.80;;;;;;5031448;28;20047;-55
2021/09/11 06:39:09;;;;;;;3.22;2.53;;;25.50;51.80;;;;;;5039551;28;20037;-54
2021/09/11 06:41:34;;;;;;;3.33;2.85;;;25.50;51.80;;;;;;5038448;28;20098;-57
2021/09/11 06:44:00;;;;;;;3.08;2.60;;;25.50;51.80;;;;;;5037399;28;20045;-54
2021/09/11 06:46:25;;;;;;;3.20;2.80;;;25.40;51.80;;;;;;5035618;28;20953;-57
2021/09/11 06:48:52;;;;;;;3.17;2.47;;;25.50;51.90;;;;;;5036207;28;20125;-56
2021/09/11 06:51:18;;;;;;;3.50;2.83;;;25.50;51.90;;;;;;5038819;28;20083;-56
2021/09/11 06:53:43;;;;;;;3.03;2.50;;;25.40;51.80;;;;;;5035054;28;20052;-59
2021/09/11 06:56:09;;;;;;;2.90;2.60;;;25.40;51.80;;;;;;5042895;28;20369;-56
2021/09/11 06:58:34;;;;;;;3.00;2.70;;;25.50;51.90;;;;;;5038936;28;20025;-57
2021/09/11 07:01:00;;;;;;;3.25;2.40;;;25.40;51.80;;;;;;5035867;28;20056;-59
2021/09/11 07:03:26;;;;;;;3.13;2.65;;;25.40;51.90;;;;;;5038204;28;20517;-57
2021/09/11 07:05:52;;;;;;;2.75;2.47;;;25.50;51.90;;;;;;5039416;28;20060;-58
2021/09/11 07:08:17;;;;;;;2.72;2.40;;;25.40;51.80;;;;;;5054420;28;20045;-58
2021/09/11 07:10:43;;;;;;;3.20;2.58;;;25.40;51.80;;;;;;5045074;28;20044;-54
2021/09/11 07:13:09;;;;;;;2.90;2.60;;;25.40;51.80;;;;;;5032506;28;20040;-57
2021/09/11 07:15:34;;;;;;;2.90;2.60;;;25.40;51.80;;;;;;5034240;28;20061;-58
2021/09/11 07:18:00;;;;;;;3.20;2.67;;;25.40;51.80;;;;;;5055221;28;20045;-61
2021/09/11 07:20:26;;;;;;;2.75;2.25;;;25.40;51.80;;;;;;5038555;28;20033;-49
2021/09/11 07:22:52;;;;;;;3.38;2.42;;;25.40;51.80;;;;;;5031999;28;20109;-49
2021/09/11 07:25:18;;;;;;;2.63;2.38;;;25.40;51.80;;;;;;5038106;28;20036;-54
2021/09/11 07:27:43;;;;;;;3.38;2.67;;;25.40;51.80;;;;;;5045279;28;20029;-51
2021/09/11 07:30:10;;;;;;;2.78;2.40;;;25.40;51.80;;;;;;5045610;28;20444;-60
2021/09/11 07:32:35;;;;;;;3.20;2.63;;;25.40;51.80;;;;;;5037951;28;20468;-58
2021/09/11 07:35:01;;;;;;;3.20;2.88;;;25.40;51.80;;;;;;5043775;28;20051;-59
2021/09/11 07:37:27;;;;;;;3.15;2.58;;;25.40;51.80;;;;;;5036189;28;20029;-55
2021/09/11 07:39:52;;;;;;;3.13;2.53;;;25.40;51.80;;;;;;5032380;28;20461;-59
2021/09/11 07:42:18;;;;;;;2.70;2.30;;;25.40;51.80;;;;;;5045393;28;20768;-59
2021/09/11 07:44:44;;;;;;;3.15;2.30;;;25.40;51.80;;;;;;5049957;28;20106;-57
2021/09/11 07:47:10;;;;;;;3.03;2.60;;;25.40;51.90;;;;;;5036953;28;20028;-53
2021/09/11 07:49:36;;;;;;;2.95;2.50;;;25.40;51.90;;;;;;5042806;28;20029;-57
2021/09/11 07:52:02;;;;;;;2.95;2.50;;;25.40;51.90;;;;;;5047086;28;20353;-57
2021/09/11 07:54:27;;;;;;;2.88;2.40;;;25.40;51.90;;;;;;5035176;28;20540;-53
2021/09/11 07:56:53;;;;;;;2.90;2.47;;;25.40;51.90;;;;;;5026263;28;20076;-58
2021/09/11 07:59:18;;;;;;;3.60;2.30;;;25.40;51.90;;;;;;5034281;28;20091;-58
2021/09/11 08:01:44;;;;;;;2.70;2.40;;;25.40;51.90;;;;;;5036812;28;20033;-53
2021/09/11 08:04:09;;;;;;;2.70;2.38;;;25.40;51.90;;;;;;5028946;28;20033;-56
2021/09/11 08:06:35;;;;;;;3.33;2.55;;;25.40;51.90;;;;;;5032329;28;20534;-58
2021/09/11 08:09:01;;;;;;;2.95;2.53;;;25.40;51.90;;;;;;5025186;28;20489;-52
2021/09/11 08:11:27;;;;;;;2.90;2.53;;;25.40;51.90;;;;;;5040118;28;20074;-56
2021/09/11 08:13:53;;;;;;;3.00;2.40;;;25.40;51.90;;;;;;5032802;28;20044;-52
2021/09/11 08:16:19;;;;;;;3.17;2.30;;;25.40;51.90;;;;;;5036225;28;20032;-59
2021/09/11 08:18:45;;;;;;;3.42;2.50;;;25.40;52.00;;;;;;5028518;28;20038;-55
2021/09/11 08:21:10;;;;;;;2.90;2.50;;;25.40;51.90;;;;;;5027199;28;20045;-56
2021/09/11 08:23:36;;;;;;;2.90;2.50;;;25.40;51.90;;;;;;5032601;28;20029;-58
2021/09/11 08:26:02;;;;;;;2.83;2.40;;;25.40;51.90;;;;;;5040604;28;20036;-58
2021/09/11 08:28:28;;;;;;;3.10;2.72;;;25.40;51.90;;;;;;5046784;28;20035;-58
2021/09/11 08:30:53;;;;;;;2.85;2.40;;;25.40;51.90;;;;;;5038559;28;20543;-54
2021/09/11 08:33:19;;;;;;;2.60;2.20;;;25.40;51.90;;;;;;5032033;28;20029;-55
2021/09/11 08:35:44;;;;;;;2.90;2.30;;;25.40;51.90;;;;;;5039578;28;20115;-58
2021/09/11 08:38:11;;;;;;;2.95;2.40;;;25.40;51.90;;;;;;5039418;28;20080;-55
2021/09/11 08:40:36;;;;;;;2.92;2.20;;;25.40;52.00;;;;;;5033028;28;20026;-53
2021/09/11 08:43:02;;;;;;;2.90;2.50;;;25.40;51.90;;;;;;5040027;28;20028;-52
2021/09/11 08:45:28;;;;;;;2.90;2.50;;;25.40;52.00;;;;;;5036542;28;20025;-58
2021/09/11 08:47:54;;;;;;;3.08;2.47;;;25.40;51.90;;;;;;5040404;28;20358;-59
2021/09/11 08:50:20;;;;;;;2.65;2.20;;;25.40;51.90;;;;;;5041500;28;20546;-57
2021/09/11 08:52:48;;;;;;;2.90;2.40;;;25.40;51.90;;;;;;5035780;28;20103;-55
2021/09/11 08:55:15;;;;;;;2.72;2.30;;;25.40;51.90;;;;;;5037646;28;20045;-56
2021/09/11 08:57:58;;;;;;;2.90;2.40;;;25.40;51.90;;;;;;5034255;28;20059;-58
2021/09/11 09:00:37;;;;;;;2.97;2.60;;;25.40;51.90;;;;;;5035947;28;20119;-58
2021/09/11 09:03:29;;;;;;;2.78;2.40;;;25.40;51.90;;;;;;5031395;28;20025;-59
2021/09/11 09:05:55;;;;;;;2.80;2.40;;;25.40;51.90;;;;;;5040182;28;20049;-59
2021/09/11 09:08:28;;;;;;;2.88;2.58;;;25.40;51.90;;;;;;5033520;28;20029;-48
2021/09/11 09:10:54;;;;;;;3.38;2.50;;;25.40;52.00;;;;;;5043839;28;20980;-58
2021/09/11 09:13:20;;;;;;;2.95;2.58;;;25.40;51.90;;;;;;5028923;28;20040;-59
2021/09/11 09:15:46;;;;;;;2.58;2.30;;;25.40;51.90;;;;;;5036958;28;20067;-58
2021/09/11 09:18:15;;;;;;;2.47;2.20;;;25.40;51.90;;;;;;5038657;28;20037;-58
2021/09/11 09:20:40;;;;;;;3.15;2.58;;;25.40;52.00;;;;;;5041687;28;20116;-58
2021/09/11 09:23:13;;;;;;;2.88;2.30;;;25.40;51.90;;;;;;5036055;28;20112;-56
2021/09/11 09:25:39;;;;;;;3.08;2.50;;;25.40;52.00;;;;;;5039049;28;20033;-54
2021/09/11 09:28:09;;;;;;;3.00;2.55;;;25.40;52.00;;;;;;5040998;28;20515;-53
2021/09/11 09:30:38;;;;;;;2.88;2.42;;;25.40;51.90;;;;;;5036923;28;20496;-60
2021/09/11 09:33:04;;;;;;;3.05;2.55;;;25.40;52.00;;;;;;5038454;28;20022;-53
2021/09/11 09:35:30;;;;;;;3.38;2.50;;;25.40;52.00;;;;;;5042462;28;20496;-54
2021/09/11 09:38:08;;;;;;;2.92;2.53;;;25.40;52.00;;;;;;5039448;28;20025;-56
2021/09/11 09:40:39;;;;;;;2.88;2.42;;;25.40;52.00;;;;;;5040864;28;20124;-59
2021/09/11 09:43:06;;;;;;;2.95;2.50;;;25.40;51.90;;;;;;5037185;28;20029;-53
2021/09/11 09:45:33;;;;;;;2.80;2.50;;;25.40;51.90;;;;;;5035690;28;20063;-60
2021/09/11 09:48:27;;;;;;;2.92;2.63;;;25.40;51.90;;;;;;5038625;28;20033;-54
2021/09/11 09:51:03;;;;;;;3.35;2.70;;;25.40;52.00;;;;;;5038291;28;20137;-58
2021/09/11 09:53:29;;;;;;;2.83;2.50;;;25.40;51.90;;;;;;5036168;28;20071;-60
2021/09/11 09:55:55;;;;;;;2.70;2.03;;;25.40;52.10;;;;;;5038737;28;20053;-55
2021/09/11 09:58:21;;;;;;;2.70;2.30;;;25.40;52.10;;;;;;5038646;28;20063;-52
2021/09/11 10:00:48;;;;;;;2.72;2.10;;;25.40;52.10;;;;;;5039754;28;20137;-60
2021/09/11 10:03:13;;;;;;;2.85;2.33;;;25.40;52.10;;;;;;5039519;28;20183;-58
2021/09/11 10:05:42;;;;;;;3.08;2.28;;;25.40;52.00;;;;;;5038261;28;20132;-60
2021/09/11 10:08:09;;;;;;;2.83;2.30;;;25.40;52.10;;;;;;5038065;28;20037;-59
2021/09/11 10:10:42;;;;;;;2.50;2.13;;;25.40;52.20;;;;;;5036624;28;20523;-52
2021/09/11 10:13:18;;;;;;;2.75;2.30;;;25.40;52.20;;;;;;5036923;28;20171;-54
2021/09/11 10:15:56;;;;;;;2.53;2.20;;;25.40;52.10;;;;;;5036253;28;20033;-54
2021/09/11 10:18:30;;;;;;;2.70;2.30;;;25.40;52.10;;;;;;5038059;28;20055;-59
2021/09/11 10:21:34;;;;;;;2.50;2.13;;;25.40;52.10;;;;;;5040651;28;20071;-49
2021/09/11 10:24:00;;;;;;;2.72;2.30;;;25.40;52.20;;;;;;5046937;28;20460;-52
2021/09/11 10:26:48;;;;;;;2.97;2.33;;;25.40;52.20;;;;;;5036884;28;20107;-53
2021/09/11 10:29:31;;;;;;;2.80;2.30;;;25.40;52.20;;;;;;5037301;28;20025;-50
2021/09/11 10:31:59;;;;;;;2.60;2.20;;;25.40;52.20;;;;;;5039716;28;20040;-55
2021/09/11 10:34:44;;;;;;;2.80;2.45;;;25.30;52.10;;;;;;5036897;28;20062;-49
2021/09/11 10:37:10;;;;;;;2.85;2.20;;;25.30;52.20;;;;;;5035128;28;20029;-52
2021/09/11 10:39:36;;;;;;;3.00;2.22;;;25.40;52.20;;;;;;5035880;28;20366;-58
2021/09/11 10:42:04;;;;;;;2.88;2.30;;;25.30;52.20;;;;;;5033065;28;20037;-59
2021/09/11 10:44:30;;;;;;;2.90;2.35;;;25.40;52.20;;;;;;5031684;28;20040;-53
2021/09/11 10:46:56;;;;;;;2.40;2.10;;;25.30;52.20;;;;;;5040984;28;20057;-59
2021/09/11 10:49:35;;;;;;;2.80;2.35;;;25.30;52.20;;;;;;5038401;28;20491;-58
2021/09/11 10:52:11;;;;;;;2.75;2.25;;;25.40;52.20;;;;;;5035813;28;20072;-56
2021/09/11 10:54:45;;;;;;;2.50;2.03;;;25.30;52.20;;;;;;5040759;28;20074;-59
2021/09/11 10:57:18;;;;;;;2.47;2.05;;;25.40;52.30;;;;;;5034898;28;20132;-58
2021/09/11 10:59:48;;;;;;;2.60;2.20;;;25.30;52.20;;;;;;5045585;28;20089;-56
2021/09/11 11:02:36;;;;;;;2.50;2.05;;;25.40;52.30;;;;;;5039017;28;20041;-60
2021/09/11 11:05:09;;;;;;;2.92;2.33;;;25.40;52.30;;;;;;5040618;28;20485;-58
2021/09/11 11:07:48;;;;;;;2.40;2.03;;;25.30;52.20;;;;;;5036612;28;20036;-58
2021/09/11 11:10:21;;;;;;;2.75;2.28;;;25.40;52.30;;;;;;5036004;28;20105;-58
2021/09/11 11:12:50;;;;;;;3.38;2.53;;;25.30;52.40;;;;;;5032339;28;20033;-53
2021/09/11 11:15:22;;;;;;;4.07;2.78;;;25.30;52.60;;;;;;5038076;28;20029;-58
2021/09/11 11:17:49;;;;;;;3.58;2.75;;;25.30;52.70;;;;;;5033058;28;20051;-56
2021/09/11 11:20:21;;;;;;;3.38;2.97;;;25.30;52.80;;;;;;5041587;28;20063;-55
2021/09/11 11:22:47;;;;;;;3.63;3.10;;;25.30;52.90;;;;;;5036300;28;20032;-58
2021/09/11 11:25:15;;;;;;;3.90;3.20;;;25.40;53.20;;;;;;5043318;28;20029;-58
2021/09/11 11:27:42;;;;;;;4.18;3.22;;;25.30;53.30;;;;;;5048798;28;20453;-58
2021/09/11 11:30:11;;;;;;;4.75;3.30;;;25.30;53.30;;;;;;5042753;28;20037;-58
2021/09/11 11:32:36;;;;;;;3.90;3.50;;;25.30;53.40;;;;;;5033836;28;20142;-53
2021/09/11 11:35:04;;;;;;;4.25;3.22;;;25.30;53.50;;;;;;5042949;28;20041;-57
2021/09/11 11:37:38;;;;;;;3.97;3.38;;;25.30;53.50;;;;;;5035230;28;20029;-53
2021/09/11 11:40:07;;;;;;;4.13;3.53;;;25.30;53.50;;;;;;5029531;28;20029;-56
2021/09/11 11:42:34;;;;;;;4.50;3.47;;;25.30;53.50;;;;;;5029613;28;20088;-55
2021/09/11 11:45:02;;;;;;;4.20;3.50;;;25.30;53.60;;;;;;5030271;28;20051;-56
2021/09/11 11:48:06;;;;;;;3.35;3.05;;;25.30;53.60;;;;;;5029208;28;20063;-55
2021/09/11 11:50:34;;;;;;;3.67;3.10;;;25.30;53.80;;;;;;5029926;28;20186;-55
2021/09/11 11:53:06;;;;;;;3.83;3.40;;;25.30;53.70;;;;;;5034732;28;20080;-56
2021/09/11 11:55:35;;;;;;;4.07;3.67;;;25.30;53.70;;;;;;5034321;28;20133;-52
2021/09/11 11:58:20;;;;;;;4.70;3.63;;;25.30;53.70;;;;;;5031661;28;20037;-58
2021/09/11 12:00:51;;;;;;;3.75;3.25;;;25.30;53.80;;;;;;5030145;28;20043;-54
2021/09/11 12:03:43;;;;;;;3.30;2.95;;;25.30;53.80;;;;;;5030205;28;22051;-54
2021/09/11 12:06:23;;;;;;;3.97;3.40;;;25.30;53.90;;;;;;5027879;28;20482;-58
2021/09/11 12:08:49;;;;;;;3.45;3.15;;;25.30;53.70;;;;;;5032786;28;20119;-54
2021/09/11 12:11:27;;;;;;;3.70;3.30;;;25.30;53.70;;;;;;5042586;28;20033;-57
2021/09/11 12:14:02;;;;;;;4.13;2.90;;;25.30;53.70;;;;;;5044729;28;20024;-56
2021/09/11 12:16:28;;;;;;;3.70;3.20;;;25.30;53.70;;;;;;5039703;28;20028;-53
2021/09/11 12:18:57;;;;;;;3.55;2.90;;;25.30;53.70;;;;;;5035318;28;20520;-58
2021/09/11 12:21:23;;;;;;;3.80;3.17;;;25.30;53.70;;;;;;5034636;28;20052;-56
2021/09/11 12:23:50;;;;;;;3.70;3.20;;;25.30;53.70;;;;;;5043252;28;20061;-57
2021/09/11 12:26:27;;;;;;;3.60;2.97;;;25.30;53.70;;;;;;5030641;28;20125;-58
2021/09/11 12:29:07;;;;;;;3.47;2.80;;;25.30;53.70;;;;;;5035552;28;20086;-50
2021/09/11 12:31:33;;;;;;;3.10;2.78;;;25.30;53.80;;;;;;5036796;28;20032;-50
2021/09/11 12:34:03;;;;;;;3.35;3.00;;;25.30;53.70;;;;;;5034333;28;20033;-56
2021/09/11 12:36:33;;;;;;;3.85;3.45;;;25.30;53.80;;;;;;5038261;28;20021;-55
2021/09/11 12:39:21;;;;;;;4.63;2.92;;;25.30;53.90;;;;;;5047007;28;20044;-57
2021/09/11 12:41:49;;;;;;;3.60;2.87;;;25.30;54.10;;;;;;5035294;28;20044;-46
2021/09/11 12:44:19;;;;;;;4.43;3.13;;;25.30;54.00;;;;;;5045231;28;20307;-59
2021/09/11 12:46:54;;;;;;;3.50;2.80;;;25.30;54.00;;;;;;5029429;28;20101;-58
2021/09/11 12:49:21;;;;;;;3.50;2.88;;;25.30;54.00;;;;;;5043964;28;20078;-58
2021/09/11 12:51:48;;;;;;;3.65;2.60;;;25.30;53.90;;;;;;5037522;28;20047;-53